createdAt,value
2018-09-04T18:13:06.967Z,13.62
2018-09-04T18:15:35.503Z,11.05
2018-09-04T18:18:04.095Z,10.60
2018-09-04T18:20:32.598Z,9.43
2018-09-04T18:23:01.183Z,11.90
2018-09-04T18:25:34.462Z,11.20
2018-09-04T18:28:04.397Z,11.80
2018-09-04T18:30:33.212Z,10.58
2018-09-04T18:33:01.801Z,11.53
2018-09-04T18:35:30.311Z,13.30
2018-09-04T18:37:58.862Z,12.68
2018-09-04T18:40:27.715Z,13.78
2018-09-04T18:42:57.128Z,12.30
2018-09-04T18:45:37.001Z,12.15
2018-09-04T18:48:06.075Z,11.55
2018-09-04T18:50:34.682Z,11.63
2018-09-04T18:53:04.614Z,12.20
2018-09-04T18:55:33.389Z,12.37
2018-09-04T18:58:01.986Z,12.10
2018-09-04T19:00:31.924Z,11.68
2018-09-04T19:03:00.761Z,10.58
2018-09-04T19:05:30.689Z,10.78
2018-09-04T19:08:01.193Z,11.73
2018-09-04T19:10:33.154Z,11.65
2018-09-04T19:13:02.346Z,11.55
2018-09-04T19:15:32.858Z,11.35
2018-09-04T19:18:02.601Z,11.03
2018-09-04T19:20:33.129Z,10.55
2018-09-04T19:23:02.872Z,10.10
2018-09-04T19:25:31.455Z,10.25
2018-09-04T19:28:01.014Z,11.65
2018-09-04T19:30:31.964Z,9.43
2018-09-04T19:33:02.644Z,10.48
2018-09-04T19:35:31.932Z,10.68
2018-09-04T19:38:01.599Z,12.53
2018-09-04T19:40:31.075Z,13.28
2018-09-04T19:42:59.678Z,11.05
2018-09-04T19:45:28.968Z,10.45
2018-09-04T19:47:57.615Z,12.55
2018-09-04T19:50:26.204Z,12.28
2018-09-04T19:52:55.071Z,10.20
2018-09-04T19:55:23.580Z,11.22
2018-09-04T19:57:52.793Z,9.55
2018-09-04T20:00:21.934Z,9.05
2018-09-04T20:02:50.559Z,11.35
2018-09-04T20:05:19.141Z,9.93
2018-09-04T20:07:49.602Z,9.43
2018-09-04T20:10:18.364Z,9.68
2018-09-04T20:12:47.853Z,9.90
2018-09-04T20:15:17.235Z,10.25
2018-09-04T20:17:45.786Z,10.63
2018-09-04T20:20:14.288Z,10.65
2018-09-04T20:22:43.840Z,11.57
2018-09-04T20:25:12.644Z,12.78
2018-09-04T20:27:41.179Z,13.98
2018-09-04T20:30:10.317Z,12.58
2018-09-04T20:32:38.875Z,15.15
2018-09-04T20:35:07.644Z,12.07
2018-09-04T20:37:36.242Z,12.00
2018-09-04T20:40:06.035Z,12.75
2018-09-04T20:42:35.047Z,13.65
2018-09-04T20:45:03.644Z,16.15
2018-09-04T20:47:32.180Z,13.55
2018-09-04T20:50:00.701Z,13.85
2018-09-04T20:52:29.395Z,15.40
2018-09-04T20:54:57.889Z,11.68
2018-09-04T20:57:30.630Z,10.60
2018-09-04T21:00:18.958Z,11.00
2018-09-04T21:02:58.786Z,10.63
2018-09-04T21:05:38.521Z,10.18
2018-09-04T21:08:48.864Z,9.33
2018-09-04T21:11:17.559Z,11.78
2018-09-04T21:13:46.120Z,9.88
2018-09-04T21:16:14.622Z,10.53
2018-09-04T21:18:43.130Z,9.78
2018-09-04T21:21:11.639Z,10.23
2018-09-04T21:23:40.251Z,10.00
2018-09-04T21:26:08.744Z,10.30
2018-09-04T21:28:37.844Z,14.95
2018-09-04T21:31:06.472Z,25.05
2018-09-04T21:33:35.070Z,19.98
2018-09-04T21:36:03.914Z,23.05
2018-09-04T21:38:32.607Z,28.12
2018-09-04T21:41:01.816Z,41.63
2018-09-04T21:43:30.343Z,35.28
2018-09-04T21:45:58.889Z,31.85
2018-09-04T21:48:27.445Z,25.15
2018-09-04T21:50:56.027Z,16.60
2018-09-04T21:53:25.175Z,17.00
2018-09-04T21:55:53.693Z,15.13
